sensor_id;sensor_type;location;lat;lon;timestamp;pressure;altitude;pressure_sealevel;temperature;humidity
23643;BME280;11998;55.788;37.572;2023-07-20T00:00:50;97201.72;;;81.51;12.59
23643;BME280;11998;55.788;37.572;2023-07-20T00:01:53;97204.47;;;81.22;12.79
23643;BME280;11998;55.788;37.572;2023-07-20T00:03:10;97193.16;;;80.87;12.73
23643;BME280;11998;55.788;37.572;2023-07-20T00:04:11;97191.72;;;79.33;12.99
23643;BME280;11998;55.788;37.572;2023-07-20T00:05:11;97194.31;;;79.93;12.78
23643;BME280;11998;55.788;37.572;2023-07-20T00:06:12;97190.88;;;80.53;12.51
23643;BME280;11998;55.788;37.572;2023-07-20T00:07:12;97192.31;;;80.14;12.68
23643;BME280;11998;55.788;37.572;2023-07-20T00:08:13;97192.25;;;81.05;12.59
23643;BME280;11998;55.788;37.572;2023-07-20T00:09:13;97194.75;;;80.88;12.79
23643;BME280;11998;55.788;37.572;2023-07-20T00:10:14;97194.91;;;80.50;12.68
23643;BME280;11998;55.788;37.572;2023-07-20T00:11:14;97197.34;;;80.78;12.87
23643;BME280;11998;55.788;37.572;2023-07-20T00:12:15;97190.69;;;80.32;12.91
23643;BME280;11998;55.788;37.572;2023-07-20T00:13:15;97189.06;;;79.48;12.70
23643;BME280;11998;55.788;37.572;2023-07-20T00:14:19;97176.28;;;77.52;12.95
23643;BME280;11998;55.788;37.572;2023-07-20T00:15:19;97173.81;;;78.03;13.07
23643;BME280;11998;55.788;37.572;2023-07-20T00:16:20;97183.38;;;77.79;13.00
23643;BME280;11998;55.788;37.572;2023-07-20T00:17:20;97173.63;;;77.95;13.09
23643;BME280;11998;55.788;37.572;2023-07-20T00:18:21;97180.53;;;79.07;12.53
23643;BME280;11998;55.788;37.572;2023-07-20T00:19:23;97177.22;;;78.13;13.18
23643;BME280;11998;55.788;37.572;2023-07-20T00:20:24;97177.34;;;78.32;13.13
23643;BME280;11998;55.788;37.572;2023-07-20T00:21:25;97188.50;;;79.31;12.92
23643;BME280;11998;55.788;37.572;2023-07-20T00:22:26;97187.47;;;79.09;12.83
23643;BME280;11998;55.788;37.572;2023-07-20T00:23:27;97186.88;;;78.08;12.77
23643;BME280;11998;55.788;37.572;2023-07-20T00:24:27;97184.13;;;79.19;12.69
23643;BME280;11998;55.788;37.572;2023-07-20T00:25:28;97193.56;;;79.55;12.60
23643;BME280;11998;55.788;37.572;2023-07-20T00:26:28;97183.28;;;78.50;12.78
23643;BME280;11998;55.788;37.572;2023-07-20T00:27:29;97184.31;;;78.53;12.78
23643;BME280;11998;55.788;37.572;2023-07-20T00:28:29;97184.59;;;78.25;12.94
23643;BME280;11998;55.788;37.572;2023-07-20T00:29:30;97189.59;;;78.84;12.86
23643;BME280;11998;55.788;37.572;2023-07-20T00:30:31;97192.00;;;78.86;12.99
23643;BME280;11998;55.788;37.572;2023-07-20T00:31:31;97185.84;;;79.08;12.70
23643;BME280;11998;55.788;37.572;2023-07-20T00:32:32;97191.94;;;79.72;12.59
23643;BME280;11998;55.788;37.572;2023-07-20T00:33:32;97207.94;;;80.28;12.55
23643;BME280;11998;55.788;37.572;2023-07-20T00:34:33;97206.19;;;79.68;12.68
23643;BME280;11998;55.788;37.572;2023-07-20T00:35:33;97211.25;;;79.87;12.69
23643;BME280;11998;55.788;37.572;2023-07-20T00:36:34;97209.59;;;79.91;12.61
23643;BME280;11998;55.788;37.572;2023-07-20T00:37:34;97212.91;;;80.92;12.80
23643;BME280;11998;55.788;37.572;2023-07-20T00:38:35;97216.97;;;80.75;12.70
23643;BME280;11998;55.788;37.572;2023-07-20T00:39:36;97222.00;;;80.94;12.86
23643;BME280;11998;55.788;37.572;2023-07-20T00:40:37;97216.06;;;80.67;12.57
23643;BME280;11998;55.788;37.572;2023-07-20T00:41:38;97219.94;;;79.98;12.68
23643;BME280;11998;55.788;37.572;2023-07-20T00:42:38;97205.59;;;79.13;12.78
23643;BME280;11998;55.788;37.572;2023-07-20T00:43:39;97205.88;;;79.34;13.04
23643;BME280;11998;55.788;37.572;2023-07-20T00:44:40;97214.66;;;79.40;12.75
23643;BME280;11998;55.788;37.572;2023-07-20T00:45:40;97209.31;;;79.57;12.67
23643;BME280;11998;55.788;37.572;2023-07-20T00:46:41;97208.56;;;79.51;12.74
23643;BME280;11998;55.788;37.572;2023-07-20T00:47:42;97207.34;;;79.22;12.83
23643;BME280;11998;55.788;37.572;2023-07-20T00:48:42;97204.59;;;79.30;12.70
23643;BME280;11998;55.788;37.572;2023-07-20T00:49:43;97219.03;;;80.67;12.59
23643;BME280;11998;55.788;37.572;2023-07-20T00:50:45;97205.38;;;79.30;13.01
23643;BME280;11998;55.788;37.572;2023-07-20T00:51:46;97215.91;;;79.63;12.97
23643;BME280;11998;55.788;37.572;2023-07-20T00:52:48;97211.59;;;79.64;12.67
23643;BME280;11998;55.788;37.572;2023-07-20T00:53:49;97204.19;;;79.39;12.63
23643;BME280;11998;55.788;37.572;2023-07-20T00:54:50;97208.72;;;78.18;13.11
23643;BME280;11998;55.788;37.572;2023-07-20T00:55:52;97206.72;;;78.86;12.79
23643;BME280;11998;55.788;37.572;2023-07-20T00:56:53;97206.97;;;78.88;12.80
23643;BME280;11998;55.788;37.572;2023-07-20T00:57:54;97201.44;;;79.03;12.83
23643;BME280;11998;55.788;37.572;2023-07-20T00:58:55;97212.09;;;79.06;12.96
23643;BME280;11998;55.788;37.572;2023-07-20T00:59:55;97209.13;;;79.68;12.64
23643;BME280;11998;55.788;37.572;2023-07-20T01:00:56;97217.88;;;80.70;12.61
23643;BME280;11998;55.788;37.572;2023-07-20T01:01:56;97222.63;;;80.60;12.64
23643;BME280;11998;55.788;37.572;2023-07-20T01:02:57;97222.63;;;79.96;12.66
23643;BME280;11998;55.788;37.572;2023-07-20T01:03:58;97219.81;;;79.90;12.55
23643;BME280;11998;55.788;37.572;2023-07-20T01:04:58;97214.44;;;79.13;13.01
23643;BME280;11998;55.788;37.572;2023-07-20T01:07:31;97221.25;;;80.48;12.77
23643;BME280;11998;55.788;37.572;2023-07-20T01:08:44;97225.06;;;81.01;12.64
23643;BME280;11998;55.788;37.572;2023-07-20T01:09:53;97217.88;;;79.36;12.98
23643;BME280;11998;55.788;37.572;2023-07-20T01:12:33;97219.41;;;79.62;12.69
23643;BME280;11998;55.788;37.572;2023-07-20T01:13:37;97202.41;;;79.11;12.71
23643;BME280;11998;55.788;37.572;2023-07-20T01:14:38;97209.91;;;79.50;12.75
23643;BME280;11998;55.788;37.572;2023-07-20T01:15:39;97204.41;;;78.79;12.99
23643;BME280;11998;55.788;37.572;2023-07-20T01:16:39;97210.97;;;78.91;12.85
23643;BME280;11998;55.788;37.572;2023-07-20T01:17:40;97212.69;;;79.24;12.70
23643;BME280;11998;55.788;37.572;2023-07-20T01:18:40;97197.53;;;78.71;12.88
23643;BME280;11998;55.788;37.572;2023-07-20T01:19:41;97214.88;;;79.80;12.60
23643;BME280;11998;55.788;37.572;2023-07-20T01:20:41;97216.75;;;79.96;12.79
23643;BME280;11998;55.788;37.572;2023-07-20T01:21:55;97222.78;;;80.68;12.53
23643;BME280;11998;55.788;37.572;2023-07-20T01:24:52;97206.91;;;79.37;12.70
23643;BME280;11998;55.788;37.572;2023-07-20T01:26:12;97203.00;;;78.31;13.00
23643;BME280;11998;55.788;37.572;2023-07-20T01:27:41;97198.38;;;77.70;12.82
23643;BME280;11998;55.788;37.572;2023-07-20T01:29:22;97203.28;;;78.82;12.90
23643;BME280;11998;55.788;37.572;2023-07-20T01:31:57;97206.28;;;79.44;12.87
23643;BME280;11998;55.788;37.572;2023-07-20T01:32:58;97202.59;;;79.38;12.93
23643;BME280;11998;55.788;37.572;2023-07-20T01:34:01;97212.94;;;79.63;12.65
23643;BME280;11998;55.788;37.572;2023-07-20T01:35:03;97202.66;;;79.51;13.00
23643;BME280;11998;55.788;37.572;2023-07-20T01:36:07;97213.75;;;79.45;13.04
23643;BME280;11998;55.788;37.572;2023-07-20T01:37:09;97215.22;;;79.89;12.76
23643;BME280;11998;55.788;37.572;2023-07-20T01:38:12;97228.09;;;80.82;12.76
23643;BME280;11998;55.788;37.572;2023-07-20T01:39:13;97227.28;;;79.72;12.96
23643;BME280;11998;55.788;37.572;2023-07-20T01:40:14;97224.09;;;79.70;12.97
23643;BME280;11998;55.788;37.572;2023-07-20T01:41:16;97224.19;;;79.03;12.72
23643;BME280;11998;55.788;37.572;2023-07-20T01:42:17;97220.75;;;80.31;12.50
23643;BME280;11998;55.788;37.572;2023-07-20T01:43:17;97223.16;;;80.13;12.78
23643;BME280;11998;55.788;37.572;2023-07-20T01:44:18;97224.84;;;80.28;12.77
23643;BME280;11998;55.788;37.572;2023-07-20T01:45:19;97221.00;;;80.14;12.75
23643;BME280;11998;55.788;37.572;2023-07-20T01:46:19;97225.50;;;80.20;12.93
23643;BME280;11998;55.788;37.572;2023-07-20T01:47:20;97221.06;;;79.20;12.97
23643;BME280;11998;55.788;37.572;2023-07-20T01:48:20;97208.50;;;78.40;12.76
23643;BME280;11998;55.788;37.572;2023-07-20T01:49:21;97209.53;;;78.48;13.11
23643;BME280;11998;55.788;37.572;2023-07-20T01:50:22;97210.75;;;78.83;12.94
23643;BME280;11998;55.788;37.572;2023-07-20T01:51:22;97206.69;;;78.62;13.12
23643;BME280;11998;55.788;37.572;2023-07-20T01:52:23;97208.63;;;79.27;12.97
23643;BME280;11998;55.788;37.572;2023-07-20T01:53:23;97214.53;;;79.64;12.64
23643;BME280;11998;55.788;37.572;2023-07-20T01:54:24;97213.47;;;78.81;13.05
23643;BME280;11998;55.788;37.572;2023-07-20T01:55:24;97211.13;;;78.98;12.74
23643;BME280;11998;55.788;37.572;2023-07-20T01:56:25;97208.50;;;79.76;12.83
23643;BME280;11998;55.788;37.572;2023-07-20T01:57:25;97214.00;;;79.85;12.61
23643;BME280;11998;55.788;37.572;2023-07-20T01:58:26;97213.59;;;79.75;12.56
23643;BME280;11998;55.788;37.572;2023-07-20T01:59:27;97221.03;;;80.59;12.27
23643;BME280;11998;55.788;37.572;2023-07-20T02:00:27;97224.91;;;80.54;13.02
23643;BME280;11998;55.788;37.572;2023-07-20T02:01:28;97218.59;;;81.03;12.82
23643;BME280;11998;55.788;37.572;2023-07-20T02:02:29;97222.38;;;80.45;12.64
23643;BME280;11998;55.788;37.572;2023-07-20T02:03:29;97220.59;;;80.81;12.71
23643;BME280;11998;55.788;37.572;2023-07-20T02:04:30;97222.44;;;80.98;12.85
23643;BME280;11998;55.788;37.572;2023-07-20T02:05:30;97221.53;;;81.16;12.59
23643;BME280;11998;55.788;37.572;2023-07-20T02:06:31;97226.09;;;81.64;12.80
23643;BME280;11998;55.788;37.572;2023-07-20T02:07:31;97221.00;;;81.65;12.83
23643;BME280;11998;55.788;37.572;2023-07-20T02:08:32;97234.84;;;81.70;12.82
23643;BME280;11998;55.788;37.572;2023-07-20T02:09:33;97236.16;;;81.82;12.77
23643;BME280;11998;55.788;37.572;2023-07-20T02:10:33;97236.78;;;81.67;12.86
23643;BME280;11998;55.788;37.572;2023-07-20T02:11:34;97229.91;;;82.48;12.63
23643;BME280;11998;55.788;37.572;2023-07-20T02:12:35;97238.91;;;82.35;12.74
23643;BME280;11998;55.788;37.572;2023-07-20T02:13:35;97236.53;;;81.79;12.79
23643;BME280;11998;55.788;37.572;2023-07-20T02:14:36;97233.78;;;81.20;12.66
23643;BME280;11998;55.788;37.572;2023-07-20T02:15:36;97222.41;;;81.24;12.93
23643;BME280;11998;55.788;37.572;2023-07-20T02:16:37;97226.97;;;81.38;12.86
23643;BME280;11998;55.788;37.572;2023-07-20T02:17:38;97221.13;;;81.46;12.72
23643;BME280;11998;55.788;37.572;2023-07-20T02:18:40;97224.13;;;80.80;12.88
23643;BME280;11998;55.788;37.572;2023-07-20T02:19:41;97234.19;;;81.51;12.71
23643;BME280;11998;55.788;37.572;2023-07-20T02:20:41;97227.97;;;81.88;12.72
23643;BME280;11998;55.788;37.572;2023-07-20T02:21:42;97228.13;;;82.45;12.55
23643;BME280;11998;55.788;37.572;2023-07-20T02:22:43;97236.72;;;82.85;12.48
23643;BME280;11998;55.788;37.572;2023-07-20T02:23:43;97240.53;;;82.23;12.69
23643;BME280;11998;55.788;37.572;2023-07-20T02:24:44;97237.50;;;82.86;12.67
23643;BME280;11998;55.788;37.572;2023-07-20T02:25:44;97233.91;;;82.30;12.60
23643;BME280;11998;55.788;37.572;2023-07-20T02:26:45;97238.47;;;81.76;12.86
23643;BME280;11998;55.788;37.572;2023-07-20T02:27:45;97227.22;;;81.27;12.86
23643;BME280;11998;55.788;37.572;2023-07-20T02:28:46;97226.78;;;81.71;12.77
23643;BME280;11998;55.788;37.572;2023-07-20T02:29:46;97235.47;;;81.42;12.73
23643;BME280;11998;55.788;37.572;2023-07-20T02:30:47;97228.56;;;81.39;12.90
23643;BME280;11998;55.788;37.572;2023-07-20T02:31:50;97221.63;;;79.37;13.13
23643;BME280;11998;55.788;37.572;2023-07-20T02:32:50;97216.22;;;80.30;12.64
23643;BME280;11998;55.788;37.572;2023-07-20T02:33:51;97224.97;;;81.07;12.64
23643;BME280;11998;55.788;37.572;2023-07-20T02:34:51;97225.84;;;81.28;12.80
23643;BME280;11998;55.788;37.572;2023-07-20T02:35:52;97229.47;;;80.95;12.84
23643;BME280;11998;55.788;37.572;2023-07-20T02:36:52;97231.28;;;81.11;12.80
23643;BME280;11998;55.788;37.572;2023-07-20T02:37:53;97228.31;;;80.71;12.62
23643;BME280;11998;55.788;37.572;2023-07-20T02:38:54;97229.22;;;81.93;12.63
23643;BME280;11998;55.788;37.572;2023-07-20T02:39:54;97241.69;;;82.20;12.64
23643;BME280;11998;55.788;37.572;2023-07-20T02:40:55;97241.25;;;81.48;12.65
23643;BME280;11998;55.788;37.572;2023-07-20T02:41:56;97242.81;;;80.43;12.75
23643;BME280;11998;55.788;37.572;2023-07-20T02:42:56;97237.00;;;80.05;12.73
23643;BME280;11998;55.788;37.572;2023-07-20T02:43:57;97245.16;;;81.03;12.66
23643;BME280;11998;55.788;37.572;2023-07-20T02:44:58;97234.72;;;81.02;12.61
23643;BME280;11998;55.788;37.572;2023-07-20T02:45:58;97244.09;;;81.00;12.75
23643;BME280;11998;55.788;37.572;2023-07-20T02:46:59;97237.88;;;80.32;12.68
23643;BME280;11998;55.788;37.572;2023-07-20T02:47:59;97246.81;;;80.26;12.75
23643;BME280;11998;55.788;37.572;2023-07-20T02:49:01;97248.34;;;81.18;12.56
23643;BME280;11998;55.788;37.572;2023-07-20T02:50:02;97238.53;;;81.23;12.64
23643;BME280;11998;55.788;37.572;2023-07-20T02:51:03;97241.16;;;82.08;12.76
23643;BME280;11998;55.788;37.572;2023-07-20T02:52:03;97245.25;;;81.84;12.67
23643;BME280;11998;55.788;37.572;2023-07-20T02:53:04;97234.72;;;80.11;12.75
23643;BME280;11998;55.788;37.572;2023-07-20T02:54:05;97249.56;;;80.38;12.81
23643;BME280;11998;55.788;37.572;2023-07-20T02:55:05;97252.84;;;81.46;12.67
23643;BME280;11998;55.788;37.572;2023-07-20T02:56:06;97236.84;;;79.60;12.73
23643;BME280;11998;55.788;37.572;2023-07-20T02:57:06;97239.03;;;80.10;12.71
23643;BME280;11998;55.788;37.572;2023-07-20T02:58:07;97241.16;;;81.00;12.36
23643;BME280;11998;55.788;37.572;2023-07-20T02:59:08;97248.75;;;80.69;12.73
23643;BME280;11998;55.788;37.572;2023-07-20T03:00:08;97248.66;;;81.41;12.73
23643;BME280;11998;55.788;37.572;2023-07-20T03:01:09;97245.94;;;81.90;12.86
23643;BME280;11998;55.788;37.572;2023-07-20T03:02:11;97255.47;;;81.83;12.83
23643;BME280;11998;55.788;37.572;2023-07-20T03:03:11;97243.25;;;81.05;12.63
23643;BME280;11998;55.788;37.572;2023-07-20T03:04:12;97250.16;;;81.08;12.65
23643;BME280;11998;55.788;37.572;2023-07-20T03:05:13;97244.69;;;81.38;12.67
23643;BME280;11998;55.788;37.572;2023-07-20T03:06:14;97243.00;;;80.13;12.65
23643;BME280;11998;55.788;37.572;2023-07-20T03:07:15;97243.78;;;81.04;12.87
23643;BME280;11998;55.788;37.572;2023-07-20T03:08:15;97252.91;;;80.61;12.77
23643;BME280;11998;55.788;37.572;2023-07-20T03:09:16;97242.75;;;80.30;12.94
23643;BME280;11998;55.788;37.572;2023-07-20T03:10:16;97235.72;;;79.44;12.92
23643;BME280;11998;55.788;37.572;2023-07-20T03:11:18;97240.78;;;80.19;12.63
23643;BME280;11998;55.788;37.572;2023-07-20T03:12:19;97238.59;;;79.87;12.66
23643;BME280;11998;55.788;37.572;2023-07-20T03:13:20;97245.72;;;80.11;12.77
23643;BME280;11998;55.788;37.572;2023-07-20T03:14:20;97242.81;;;79.92;12.75
23643;BME280;11998;55.788;37.572;2023-07-20T03:15:21;97247.28;;;79.98;12.84
23643;BME280;11998;55.788;37.572;2023-07-20T03:16:23;97244.75;;;80.21;12.55
23643;BME280;11998;55.788;37.572;2023-07-20T03:17:25;97243.22;;;79.45;12.74
23643;BME280;11998;55.788;37.572;2023-07-20T03:18:25;97258.66;;;80.40;12.86
23643;BME280;11998;55.788;37.572;2023-07-20T03:19:26;97240.47;;;80.22;12.84
23643;BME280;11998;55.788;37.572;2023-07-20T03:20:28;97249.16;;;80.47;12.80
23643;BME280;11998;55.788;37.572;2023-07-20T03:21:29;97251.47;;;80.22;12.46
23643;BME280;11998;55.788;37.572;2023-07-20T03:22:29;97236.91;;;78.92;12.82
23643;BME280;11998;55.788;37.572;2023-07-20T03:23:30;97236.75;;;79.03;12.68
23643;BME280;11998;55.788;37.572;2023-07-20T03:24:31;97243.19;;;80.20;12.55
23643;BME280;11998;55.788;37.572;2023-07-20T03:25:32;97250.81;;;80.10;12.83
23643;BME280;11998;55.788;37.572;2023-07-20T03:26:34;97254.09;;;80.39;12.90
23643;BME280;11998;55.788;37.572;2023-07-20T03:27:34;97253.09;;;80.04;12.51
23643;BME280;11998;55.788;37.572;2023-07-20T03:28:36;97257.41;;;79.84;12.73
23643;BME280;11998;55.788;37.572;2023-07-20T03:29:38;97260.34;;;80.03;12.93
23643;BME280;11998;55.788;37.572;2023-07-20T03:30:38;97260.34;;;79.84;12.94
23643;BME280;11998;55.788;37.572;2023-07-20T03:31:39;97247.34;;;79.74;12.90
23643;BME280;11998;55.788;37.572;2023-07-20T03:32:40;97253.69;;;80.16;12.90
23643;BME280;11998;55.788;37.572;2023-07-20T03:33:41;97250.81;;;80.10;12.58
23643;BME280;11998;55.788;37.572;2023-07-20T03:34:42;97267.00;;;80.22;12.67
23643;BME280;11998;55.788;37.572;2023-07-20T03:35:44;97252.13;;;79.15;13.00
23643;BME280;11998;55.788;37.572;2023-07-20T03:36:45;97259.44;;;80.08;12.90
23643;BME280;11998;55.788;37.572;2023-07-20T03:37:45;97251.72;;;79.49;12.59
23643;BME280;11998;55.788;37.572;2023-07-20T03:38:46;97265.31;;;80.72;12.80
23643;BME280;11998;55.788;37.572;2023-07-20T03:39:46;97266.72;;;80.39;12.87
23643;BME280;11998;55.788;37.572;2023-07-20T03:41:00;97260.75;;;79.75;12.68
23643;BME280;11998;55.788;37.572;2023-07-20T03:42:00;97255.00;;;79.45;12.66
23643;BME280;11998;55.788;37.572;2023-07-20T03:43:01;97244.84;;;78.97;12.76
23643;BME280;11998;55.788;37.572;2023-07-20T03:44:02;97253.06;;;79.48;12.99
23643;BME280;11998;55.788;37.572;2023-07-20T03:45:03;97251.66;;;79.92;13.03
23643;BME280;11998;55.788;37.572;2023-07-20T03:46:04;97275.84;;;81.26;12.79
23643;BME280;11998;55.788;37.572;2023-07-20T03:47:07;97266.25;;;80.80;12.72
23643;BME280;11998;55.788;37.572;2023-07-20T03:48:08;97258.94;;;80.55;12.70
23643;BME280;11998;55.788;37.572;2023-07-20T03:49:08;97258.78;;;80.47;12.86
23643;BME280;11998;55.788;37.572;2023-07-20T03:50:09;97253.03;;;79.10;12.80
23643;BME280;11998;55.788;37.572;2023-07-20T03:51:10;97262.16;;;80.06;12.76
23643;BME280;11998;55.788;37.572;2023-07-20T03:52:11;97267.06;;;80.94;12.76
23643;BME280;11998;55.788;37.572;2023-07-20T03:53:15;97270.72;;;82.42;12.60
23643;BME280;11998;55.788;37.572;2023-07-20T03:54:16;97278.06;;;82.28;12.55
23643;BME280;11998;55.788;37.572;2023-07-20T03:55:17;97287.25;;;82.87;12.47
23643;BME280;11998;55.788;37.572;2023-07-20T03:56:17;97282.09;;;82.80;12.49
23643;BME280;11998;55.788;37.572;2023-07-20T03:57:18;97281.94;;;82.23;12.82
23643;BME280;11998;55.788;37.572;2023-07-20T03:58:19;97275.19;;;82.57;12.67
23643;BME280;11998;55.788;37.572;2023-07-20T03:59:21;97272.50;;;82.45;12.60
23643;BME280;11998;55.788;37.572;2023-07-20T04:00:22;97283.19;;;83.26;12.50
23643;BME280;11998;55.788;37.572;2023-07-20T04:01:22;97286.19;;;84.67;12.37
23643;BME280;11998;55.788;37.572;2023-07-20T04:02:23;97291.91;;;84.88;12.54
23643;BME280;11998;55.788;37.572;2023-07-20T04:03:24;97288.69;;;84.02;12.73
23643;BME280;11998;55.788;37.572;2023-07-20T04:04:28;97300.56;;;85.09;12.55
23643;BME280;11998;55.788;37.572;2023-07-20T04:05:28;97297.03;;;84.27;12.44
23643;BME280;11998;55.788;37.572;2023-07-20T04:06:28;97306.53;;;85.01;12.41
23643;BME280;11998;55.788;37.572;2023-07-20T04:07:29;97309.31;;;84.92;12.44
23643;BME280;11998;55.788;37.572;2023-07-20T04:08:29;97301.81;;;84.75;12.84
23643;BME280;11998;55.788;37.572;2023-07-20T04:09:31;97312.19;;;85.45;12.34
23643;BME280;11998;55.788;37.572;2023-07-20T04:10:32;97316.47;;;86.32;12.35
23643;BME280;11998;55.788;37.572;2023-07-20T04:11:33;97314.81;;;86.14;12.54
23643;BME280;11998;55.788;37.572;2023-07-20T04:12:33;97312.59;;;86.47;12.41
23643;BME280;11998;55.788;37.572;2023-07-20T04:13:34;97319.06;;;85.96;12.48
23643;BME280;11998;55.788;37.572;2023-07-20T04:14:34;97307.91;;;85.71;12.47
23643;BME280;11998;55.788;37.572;2023-07-20T04:15:35;97303.28;;;85.22;12.66
23643;BME280;11998;55.788;37.572;2023-07-20T04:16:35;97303.38;;;84.46;12.68
23643;BME280;11998;55.788;37.572;2023-07-20T04:17:37;97292.25;;;84.24;12.56
23643;BME280;11998;55.788;37.572;2023-07-20T04:18:37;97292.25;;;85.15;12.42
23643;BME280;11998;55.788;37.572;2023-07-20T04:19:38;97291.03;;;84.11;12.70
23643;BME280;11998;55.788;37.572;2023-07-20T04:20:38;97290.69;;;85.14;12.58
23643;BME280;11998;55.788;37.572;2023-07-20T04:21:41;97296.25;;;85.58;12.37
23643;BME280;11998;55.788;37.572;2023-07-20T04:22:42;97298.91;;;86.19;12.62
23643;BME280;11998;55.788;37.572;2023-07-20T04:23:42;97300.69;;;86.72;12.38
23643;BME280;11998;55.788;37.572;2023-07-20T04:24:43;97315.72;;;86.99;12.35
23643;BME280;11998;55.788;37.572;2023-07-20T04:25:44;97300.22;;;87.18;12.42
23643;BME280;11998;55.788;37.572;2023-07-20T04:26:44;97312.94;;;87.97;12.27
23643;BME280;11998;55.788;37.572;2023-07-20T04:27:45;97326.78;;;89.22;12.13
23643;BME280;11998;55.788;37.572;2023-07-20T04:28:45;97335.91;;;90.64;12.21
23643;BME280;11998;55.788;37.572;2023-07-20T04:29:46;97347.03;;;91.91;11.90
23643;BME280;11998;55.788;37.572;2023-07-20T04:30:48;97353.59;;;93.05;11.75
23643;BME280;11998;55.788;37.572;2023-07-20T04:31:51;97359.19;;;94.38;11.64
23643;BME280;11998;55.788;37.572;2023-07-20T04:32:51;97361.66;;;94.83;11.61
23643;BME280;11998;55.788;37.572;2023-07-20T04:33:51;97368.69;;;95.74;11.59
23643;BME280;11998;55.788;37.572;2023-07-20T04:34:52;97363.22;;;96.31;11.84
23643;BME280;11998;55.788;37.572;2023-07-20T04:35:54;97365.59;;;96.17;11.90
23643;BME280;11998;55.788;37.572;2023-07-20T04:36:54;97364.69;;;96.95;11.91
23643;BME280;11998;55.788;37.572;2023-07-20T04:37:55;97363.78;;;97.98;11.82
23643;BME280;11998;55.788;37.572;2023-07-20T04:38:55;97362.06;;;97.39;11.75
23643;BME280;11998;55.788;37.572;2023-07-20T04:39:56;97353.38;;;97.29;11.65
23643;BME280;11998;55.788;37.572;2023-07-20T04:40:56;97356.97;;;97.97;11.69
23643;BME280;11998;55.788;37.572;2023-07-20T04:41:57;97357.53;;;99.35;11.81
23643;BME280;11998;55.788;37.572;2023-07-20T04:42:58;97357.22;;;99.70;11.75
23643;BME280;11998;55.788;37.572;2023-07-20T04:43:58;97357.72;;;100.34;11.83
23643;BME280;11998;55.788;37.572;2023-07-20T04:44:59;97351.91;;;100.43;11.64
23643;BME280;11998;55.788;37.572;2023-07-20T04:45:59;97353.28;;;100.92;11.39
23643;BME280;11998;55.788;37.572;2023-07-20T04:47:00;97350.69;;;102.00;11.49
23643;BME280;11998;55.788;37.572;2023-07-20T04:48:01;97346.19;;;102.39;11.37
23643;BME280;11998;55.788;37.572;2023-07-20T04:49:01;97340.09;;;102.03;11.76
23643;BME280;11998;55.788;37.572;2023-07-20T04:50:02;97336.94;;;102.73;11.70
23643;BME280;11998;55.788;37.572;2023-07-20T04:51:03;97331.66;;;102.74;11.46
23643;BME280;11998;55.788;37.572;2023-07-20T04:52:04;97338.16;;;103.95;11.43
23643;BME280;11998;55.788;37.572;2023-07-20T04:53:04;97314.84;;;103.61;11.72
23643;BME280;11998;55.788;37.572;2023-07-20T04:54:05;97319.47;;;102.74;11.40
23643;BME280;11998;55.788;37.572;2023-07-20T04:55:06;97313.38;;;102.74;11.35
23643;BME280;11998;55.788;37.572;2023-07-20T04:56:06;97316.91;;;103.00;11.63
23643;BME280;11998;55.788;37.572;2023-07-20T04:57:10;97288.22;;;101.01;11.79
23643;BME280;11998;55.788;37.572;2023-07-20T04:58:11;97279.78;;;100.69;11.52
23643;BME280;11998;55.788;37.572;2023-07-20T04:59:11;97294.28;;;102.31;11.39
23643;BME280;11998;55.788;37.572;2023-07-20T05:00:12;97296.13;;;103.35;11.24
23643;BME280;11998;55.788;37.572;2023-07-20T05:01:14;97299.44;;;102.63;11.72
23643;BME280;11998;55.788;37.572;2023-07-20T05:02:15;97295.84;;;102.34;11.33
23643;BME280;11998;55.788;37.572;2023-07-20T05:03:15;97275.53;;;100.80;12.06
23643;BME280;11998;55.788;37.572;2023-07-20T05:04:16;97263.22;;;99.70;11.92
23643;BME280;11998;55.788;37.572;2023-07-20T05:05:17;97257.22;;;99.72;11.55
23643;BME280;11998;55.788;37.572;2023-07-20T05:06:17;97270.50;;;99.61;11.41
23643;BME280;11998;55.788;37.572;2023-07-20T05:07:18;97243.47;;;98.78;11.76
23643;BME280;11998;55.788;37.572;2023-07-20T05:08:18;97253.75;;;99.58;11.82
23643;BME280;11998;55.788;37.572;2023-07-20T05:09:19;97267.59;;;100.67;11.15
23643;BME280;11998;55.788;37.572;2023-07-20T05:10:19;97264.69;;;99.69;11.87
23643;BME280;11998;55.788;37.572;2023-07-20T05:11:20;97265.63;;;100.00;11.91
23643;BME280;11998;55.788;37.572;2023-07-20T05:12:20;97274.28;;;100.92;11.88
23643;BME280;11998;55.788;37.572;2023-07-20T05:13:21;97271.94;;;100.88;11.76
23643;BME280;11998;55.788;37.572;2023-07-20T05:14:21;97271.75;;;101.42;11.71
23643;BME280;11998;55.788;37.572;2023-07-20T05:15:22;97290.22;;;102.59;11.56
23643;BME280;11998;55.788;37.572;2023-07-20T05:16:22;97305.22;;;103.81;11.49
23643;BME280;11998;55.788;37.572;2023-07-20T05:17:23;97306.50;;;104.22;11.58
23643;BME280;11998;55.788;37.572;2023-07-20T05:18:24;97301.84;;;104.88;11.49
23643;BME280;11998;55.788;37.572;2023-07-20T05:19:25;97313.41;;;105.00;11.14
23643;BME280;11998;55.788;37.572;2023-07-20T05:20:26;97307.84;;;105.85;11.26
23643;BME280;11998;55.788;37.572;2023-07-20T05:21:27;97311.06;;;106.36;11.08
23643;BME280;11998;55.788;37.572;2023-07-20T05:22:27;97310.34;;;106.50;11.23
23643;BME280;11998;55.788;37.572;2023-07-20T05:23:28;97306.53;;;106.74;10.85
23643;BME280;11998;55.788;37.572;2023-07-20T05:24:28;97307.28;;;107.15;10.98
23643;BME280;11998;55.788;37.572;2023-07-20T05:25:29;97304.72;;;107.95;11.18
23643;BME280;11998;55.788;37.572;2023-07-20T05:26:29;97305.78;;;106.98;11.47